Time;durP1;ratioP1;P1;durP2;ratioP2;P2;SDS_P1;SDS_P2;PMS_P1;PMS_P2;Temp;Humidity;BMP_temperature;BMP_pressure;BME280_temperature;BME280_humidity;BME280_pressure;Samples;Min_cycle;Max_cycle;Signal;HPM_P1;HPM_P2
2022/01/07 00:00:16;;;;;;;8.57;5.00;;;-1.80;99.90;;;;;;4952706;28;20474;-73
2022/01/07 00:02:49;;;;;;;9.07;4.67;;;-1.80;99.90;;;;;;4954441;28;20410;-73
2022/01/07 00:05:16;;;;;;;8.80;4.50;;;-1.90;99.90;;;;;;4954968;28;20423;-73
2022/01/07 00:07:42;;;;;;;8.00;5.33;;;-1.90;99.90;;;;;;4954121;28;20401;-72
2022/01/07 00:10:10;;;;;;;9.10;5.30;;;-1.90;99.90;;;;;;4954774;29;20478;-73
2022/01/07 00:12:35;;;;;;;12.13;5.50;;;-1.90;99.90;;;;;;4952996;29;20215;-71
2022/01/07 00:15:02;;;;;;;12.97;5.33;;;-1.90;99.90;;;;;;4953891;29;20478;-72
2022/01/07 00:17:27;;;;;;;7.40;4.80;;;-1.90;99.90;;;;;;4954515;28;20201;-73
2022/01/07 00:19:53;;;;;;;8.60;5.00;;;-1.90;99.90;;;;;;4951801;29;20420;-73
2022/01/07 00:22:19;;;;;;;11.47;5.07;;;-1.90;99.90;;;;;;4948694;29;20201;-73
2022/01/07 00:24:45;;;;;;;8.47;4.53;;;-2.00;99.90;;;;;;4950925;29;20435;-74
2022/01/07 00:27:10;;;;;;;11.97;4.93;;;-2.00;99.90;;;;;;4953712;29;20196;-74
2022/01/07 00:29:36;;;;;;;8.27;4.00;;;-2.00;99.90;;;;;;4954321;29;20183;-71
2022/01/07 00:32:01;;;;;;;11.40;5.10;;;-2.00;99.90;;;;;;4954301;29;20201;-74
2022/01/07 00:34:27;;;;;;;6.23;4.07;;;-2.00;99.90;;;;;;4953575;29;20669;-74
2022/01/07 00:36:52;;;;;;;10.63;4.60;;;-2.00;99.90;;;;;;4954401;29;20186;-72
2022/01/07 00:39:18;;;;;;;10.57;3.70;;;-2.00;99.90;;;;;;4954032;29;20232;-74
2022/01/07 00:41:43;;;;;;;10.10;4.40;;;-2.10;99.90;;;;;;4953586;28;20198;-73
2022/01/07 00:44:09;;;;;;;7.97;5.13;;;-2.10;99.90;;;;;;4953597;29;20270;-74
2022/01/07 00:46:34;;;;;;;12.90;5.07;;;-2.20;99.90;;;;;;4953965;29;20638;-74
2022/01/07 00:49:00;;;;;;;6.90;3.90;;;-2.20;99.90;;;;;;4952840;29;20215;-72
2022/01/07 00:51:25;;;;;;;8.00;4.70;;;-2.20;99.90;;;;;;4951458;28;20289;-73
2022/01/07 00:53:51;;;;;;;9.43;4.50;;;-2.20;99.90;;;;;;4953311;29;20290;-73
2022/01/07 00:56:16;;;;;;;13.83;5.17;;;-2.10;99.90;;;;;;4954046;29;20184;-74
2022/01/07 00:58:42;;;;;;;9.40;3.83;;;-2.20;99.90;;;;;;4953445;29;20209;-74
2022/01/07 05:31:10;;;;;;;9.23;5.83;;;-1.10;99.90;;;;;;5740162;23;20583;-74
2022/01/07 05:33:35;;;;;;;5.80;4.90;;;-1.10;99.90;;;;;;4929046;29;20505;-75
2022/01/07 05:36:01;;;;;;;6.30;3.80;;;-1.00;99.90;;;;;;4934647;29;20184;-76
2022/01/07 05:38:26;;;;;;;9.93;5.27;;;-1.00;99.90;;;;;;4933729;29;20219;-76
2022/01/07 05:40:52;;;;;;;12.03;4.90;;;-1.10;99.90;;;;;;4934841;29;20577;-72
2022/01/07 05:43:17;;;;;;;8.43;5.10;;;-1.00;99.90;;;;;;4934673;29;20181;-74
2022/01/07 05:45:45;;;;;;;7.90;4.90;;;-0.90;99.90;;;;;;4918075;29;20191;-74
2022/01/07 05:48:11;;;;;;;8.50;4.97;;;-0.90;99.90;;;;;;4934910;29;20614;-73
2022/01/07 05:50:37;;;;;;;10.37;4.97;;;-0.90;99.90;;;;;;4934174;29;20435;-73
2022/01/07 05:53:02;;;;;;;6.53;4.73;;;-0.90;99.90;;;;;;4934513;29;20507;-73
2022/01/07 05:55:28;;;;;;;7.20;3.87;;;-0.80;99.90;;;;;;4934719;29;20267;-74
2022/01/07 05:57:55;;;;;;;12.37;5.80;;;-0.70;99.90;;;;;;4934806;29;20208;-74
2022/01/07 06:00:20;;;;;;;10.17;5.60;;;-0.70;99.90;;;;;;4934545;29;20404;-73
2022/01/07 06:02:46;;;;;;;11.20;5.97;;;-0.50;99.90;;;;;;4934128;29;20466;-71
2022/01/07 06:05:12;;;;;;;10.10;5.87;;;-0.50;99.90;;;;;;4934539;29;20184;-74
2022/01/07 06:07:37;;;;;;;8.80;5.77;;;-0.50;99.90;;;;;;4934685;29;20806;-74
2022/01/07 06:10:05;;;;;;;9.93;5.63;;;-0.50;99.90;;;;;;4934624;29;20705;-74
2022/01/07 06:12:30;;;;;;;11.47;5.07;;;-0.40;99.90;;;;;;4934368;29;20215;-74
2022/01/07 06:14:57;;;;;;;10.97;5.63;;;-0.40;99.90;;;;;;4934473;29;20423;-73
2022/01/07 06:17:23;;;;;;;9.80;5.67;;;-0.40;99.90;;;;;;4934232;29;20183;-74
2022/01/07 06:19:48;;;;;;;10.60;5.80;;;-0.40;99.90;;;;;;4934482;29;20428;-74
2022/01/07 06:22:14;;;;;;;13.40;6.47;;;-0.40;99.90;;;;;;4934096;29;20197;-74
2022/01/07 06:24:39;;;;;;;15.20;6.37;;;-0.40;99.90;;;;;;4934390;29;20176;-74
2022/01/07 06:27:05;;;;;;;11.63;5.77;;;-0.40;99.90;;;;;;4934270;29;20205;-73
2022/01/07 06:29:31;;;;;;;11.73;5.90;;;-0.30;99.90;;;;;;4934410;29;20188;-75
2022/01/07 06:31:56;;;;;;;17.90;6.50;;;-0.30;99.90;;;;;;4933746;29;20307;-74
2022/01/07 06:34:23;;;;;;;9.47;5.77;;;-0.30;99.90;;;;;;4933301;29;20650;-73
2022/01/07 06:36:48;;;;;;;11.97;6.30;;;-0.20;99.90;;;;;;4934338;29;20174;-73
2022/01/07 06:39:15;;;;;;;11.47;6.97;;;-0.20;99.90;;;;;;4933960;29;20554;-73
2022/01/07 06:41:41;;;;;;;12.47;6.20;;;-0.20;99.90;;;;;;4934057;29;20705;-73
2022/01/07 06:44:06;;;;;;;10.90;6.20;;;-0.20;99.90;;;;;;4933946;29;20433;-73
2022/01/07 06:46:32;;;;;;;9.57;6.10;;;-0.20;99.90;;;;;;4934254;29;20208;-74
2022/01/07 06:48:57;;;;;;;12.97;6.77;;;-0.20;99.90;;;;;;4934169;29;20245;-74
2022/01/07 06:51:23;;;;;;;14.83;7.83;;;-0.20;99.90;;;;;;4933840;29;20569;-74
2022/01/07 06:53:48;;;;;;;10.17;6.40;;;-0.20;99.90;;;;;;4934183;29;20196;-73
2022/01/07 06:56:14;;;;;;;11.20;6.43;;;-0.10;99.90;;;;;;4934557;29;20529;-74
2022/01/07 06:58:39;;;;;;;10.73;6.17;;;-0.10;99.90;;;;;;4934012;29;20240;-74
2022/01/07 07:01:08;;;;;;;11.13;6.60;;;-0.20;99.90;;;;;;4935602;29;20746;-74
2022/01/07 07:03:35;;;;;;;15.03;6.70;;;-0.10;99.90;;;;;;4937863;29;20187;-73
2022/01/07 07:06:01;;;;;;;13.80;7.10;;;-0.20;99.90;;;;;;4937831;29;20481;-74
2022/01/07 07:08:28;;;;;;;16.37;7.30;;;-0.20;99.90;;;;;;4937816;29;20495;-74
2022/01/07 07:10:54;;;;;;;11.77;6.70;;;-0.20;99.90;;;;;;4937618;29;20452;-74
2022/01/07 07:13:19;;;;;;;10.57;6.60;;;-0.10;99.90;;;;;;4936152;29;20408;-73
2022/01/07 07:15:45;;;;;;;12.43;7.03;;;0.00;99.90;;;;;;4937647;29;20406;-72
2022/01/07 07:18:11;;;;;;;14.30;7.47;;;0.10;99.90;;;;;;4937352;29;20260;-73
2022/01/07 07:20:36;;;;;;;13.63;7.43;;;0.10;99.90;;;;;;4937445;29;20256;-76
2022/01/07 07:23:02;;;;;;;12.13;7.60;;;0.10;99.90;;;;;;4937231;29;20239;-73
2022/01/07 07:25:27;;;;;;;14.77;7.70;;;0.10;99.90;;;;;;4936243;29;20629;-73
2022/01/07 07:27:53;;;;;;;12.93;7.53;;;0.10;99.90;;;;;;4936214;29;20179;-74
2022/01/07 07:30:18;;;;;;;9.80;6.10;;;0.10;99.90;;;;;;4937141;29;20209;-74
2022/01/07 07:32:44;;;;;;;12.27;8.30;;;0.10;99.90;;;;;;4936978;29;20252;-73
2022/01/07 07:37:46;;;;;;;9.90;7.37;;;0.20;99.90;;;;;;4937037;29;20243;-73
2022/01/07 07:40:11;;;;;;;10.70;6.03;;;0.20;99.90;;;;;;4936852;29;20504;-76
2022/01/07 07:42:38;;;;;;;13.07;6.77;;;0.20;99.90;;;;;;4936677;29;21020;-73
2022/01/07 07:45:05;;;;;;;14.73;7.30;;;0.20;99.90;;;;;;4935597;29;20511;-74
2022/01/07 07:47:31;;;;;;;12.47;6.33;;;0.20;99.90;;;;;;4936771;29;20396;-75
2022/01/07 07:49:57;;;;;;;7.83;5.77;;;0.30;99.90;;;;;;4936850;29;20874;-73
2022/01/07 07:52:22;;;;;;;10.30;6.77;;;0.30;99.90;;;;;;4935407;29;20212;-74
2022/01/07 07:54:48;;;;;;;10.00;7.30;;;0.30;99.90;;;;;;4936694;29;20409;-74
2022/01/07 07:57:14;;;;;;;11.93;6.33;;;0.40;99.90;;;;;;4936719;29;20224;-74
2022/01/07 07:59:40;;;;;;;8.20;5.60;;;0.50;99.90;;;;;;4936595;29;20236;-73
2022/01/07 08:02:07;;;;;;;10.03;6.70;;;0.50;99.90;;;;;;4936654;29;20462;-73
2022/01/07 08:04:32;;;;;;;11.20;5.83;;;0.60;99.90;;;;;;4936304;29;20268;-72
2022/01/07 08:06:58;;;;;;;10.63;6.43;;;0.60;99.90;;;;;;4926368;29;20500;-74
2022/01/07 08:09:24;;;;;;;12.77;6.03;;;0.70;99.90;;;;;;4926992;29;20606;-72
2022/01/07 08:11:52;;;;;;;10.93;6.60;;;0.80;99.90;;;;;;4930848;29;20639;-75
2022/01/07 08:17:06;;;;;;;12.67;7.40;;;0.90;99.90;;;;;;4906709;29;20448;-73
2022/01/07 08:19:33;;;;;;;9.03;6.10;;;0.90;99.90;;;;;;4931318;29;20460;-74
2022/01/07 08:21:59;;;;;;;10.50;6.07;;;0.90;99.90;;;;;;4930371;29;20863;-74
2022/01/07 08:24:24;;;;;;;16.43;6.30;;;0.90;99.90;;;;;;4929727;29;20447;-75
2022/01/07 08:26:50;;;;;;;8.90;5.50;;;1.00;99.90;;;;;;4930913;29;20999;-76
2022/01/07 08:29:16;;;;;;;16.07;6.60;;;1.00;99.90;;;;;;4932234;29;20207;-72
2022/01/07 08:36:52;;;;;;;8.73;5.83;;;1.10;99.90;;;;;;4930595;29;20257;-75
2022/01/07 08:39:18;;;;;;;9.67;5.77;;;1.10;99.90;;;;;;4929504;29;20465;-73
2022/01/07 08:41:44;;;;;;;10.13;6.87;;;1.10;99.90;;;;;;4932589;29;20414;-73
2022/01/07 08:44:11;;;;;;;12.47;7.30;;;1.20;99.90;;;;;;4931971;29;20214;-73
2022/01/07 08:46:37;;;;;;;6.87;5.07;;;1.20;99.90;;;;;;4931077;29;20427;-73
2022/01/07 08:49:05;;;;;;;13.13;7.00;;;1.20;99.90;;;;;;4931576;29;20427;-74
2022/01/07 08:51:31;;;;;;;14.13;6.50;;;1.10;99.90;;;;;;4931262;29;20419;-73
2022/01/07 08:53:57;;;;;;;16.00;7.57;;;1.10;99.90;;;;;;4931089;29;20448;-73
2022/01/07 08:56:24;;;;;;;14.37;6.70;;;1.10;99.90;;;;;;4931008;29;20411;-75
2022/01/07 08:58:54;;;;;;;10.27;7.30;;;1.20;99.90;;;;;;4930933;29;20436;-74
2022/01/07 09:01:21;;;;;;;8.73;6.00;;;1.30;99.90;;;;;;4931729;29;20441;-77
2022/01/07 09:03:47;;;;;;;12.23;7.10;;;1.30;99.90;;;;;;4930988;29;20408;-73
2022/01/07 09:06:12;;;;;;;8.80;5.63;;;1.30;99.90;;;;;;4930314;29;20411;-75
2022/01/07 09:08:38;;;;;;;13.00;6.80;;;1.40;99.90;;;;;;4930141;29;20206;-74
2022/01/07 09:11:04;;;;;;;12.00;6.93;;;1.60;99.90;;;;;;4930082;29;20201;-76
2022/01/07 09:13:29;;;;;;;11.40;6.33;;;1.60;99.90;;;;;;4931823;29;20199;-74
2022/01/07 09:15:55;;;;;;;15.93;7.13;;;1.60;99.90;;;;;;4931955;29;20195;-74
2022/01/07 09:18:21;;;;;;;8.93;6.07;;;1.60;99.90;;;;;;4932263;29;20199;-75
2022/01/07 09:20:48;;;;;;;11.27;5.60;;;1.70;99.90;;;;;;4933028;29;20413;-73
2022/01/07 09:23:14;;;;;;;10.93;6.50;;;1.80;99.90;;;;;;4932465;29;20566;-75
2022/01/07 09:25:40;;;;;;;8.63;5.77;;;1.90;99.90;;;;;;4929762;29;20444;-74
2022/01/07 09:28:07;;;;;;;11.60;6.90;;;1.80;99.90;;;;;;4927236;29;20456;-73
2022/01/07 09:30:34;;;;;;;10.43;6.33;;;1.90;99.90;;;;;;4932575;29;20452;-74
2022/01/07 09:32:59;;;;;;;8.50;6.20;;;1.80;99.90;;;;;;4933757;29;20439;-71
2022/01/07 09:35:26;;;;;;;11.10;6.03;;;1.70;99.90;;;;;;4932751;29;20433;-73
2022/01/07 09:37:52;;;;;;;8.00;5.57;;;1.80;99.90;;;;;;4933663;29;20282;-74
2022/01/07 09:40:18;;;;;;;13.03;5.80;;;1.80;99.90;;;;;;4932693;29;20498;-73
2022/01/07 09:42:58;;;;;;;9.27;5.30;;;1.80;99.90;;;;;;4932301;29;20304;-70
2022/01/07 09:45:25;;;;;;;11.37;6.70;;;1.80;99.90;;;;;;4930418;29;20452;-74
2022/01/07 09:47:52;;;;;;;14.43;6.87;;;1.90;99.90;;;;;;4932624;29;20424;-73
2022/01/07 09:50:17;;;;;;;9.37;6.00;;;1.80;99.90;;;;;;4931936;29;20469;-74
2022/01/07 09:52:43;;;;;;;9.17;5.57;;;1.80;99.90;;;;;;4931253;29;20855;-78
2022/01/07 09:55:09;;;;;;;13.17;6.20;;;1.80;99.90;;;;;;4929384;29;20797;-72
2022/01/07 09:57:34;;;;;;;8.20;6.87;;;1.80;99.90;;;;;;4915649;29;20191;-72
2022/01/07 10:00:00;;;;;;;11.30;6.37;;;1.80;99.90;;;;;;4931988;29;20748;-73
2022/01/07 10:02:25;;;;;;;11.53;6.03;;;1.80;99.90;;;;;;4930317;29;20204;-77
2022/01/07 10:04:51;;;;;;;10.90;6.23;;;1.90;99.90;;;;;;4915243;29;20179;-73
2022/01/07 10:07:25;;;;;;;13.43;6.23;;;1.80;99.90;;;;;;4914477;29;20185;-72
2022/01/07 10:10:02;;;;;;;9.30;6.57;;;2.00;99.90;;;;;;4914771;29;20550;-73
2022/01/07 10:12:30;;;;;;;10.30;5.40;;;2.00;99.90;;;;;;4914887;29;20505;-73
2022/01/07 10:15:09;;;;;;;11.17;5.70;;;1.90;99.90;;;;;;4915294;29;20412;-71
2022/01/07 10:17:34;;;;;;;9.57;5.77;;;2.00;99.90;;;;;;4915183;29;20896;-72
2022/01/07 10:20:00;;;;;;;8.83;5.50;;;2.00;99.90;;;;;;4915284;29;20408;-72
2022/01/07 10:22:26;;;;;;;8.83;5.77;;;1.90;99.90;;;;;;4915225;29;20194;-73
2022/01/07 10:25:00;;;;;;;10.20;6.43;;;1.90;99.90;;;;;;4915076;29;20931;-70
2022/01/07 10:27:33;;;;;;;9.07;5.10;;;1.90;99.90;;;;;;4914855;29;20415;-70
2022/01/07 10:29:59;;;;;;;7.30;5.03;;;1.90;99.90;;;;;;4914898;29;20484;-71
2022/01/07 10:32:28;;;;;;;11.93;5.13;;;1.80;99.90;;;;;;4914547;29;20456;-72
2022/01/07 10:35:12;;;;;;;10.50;5.97;;;1.80;99.90;;;;;;4914680;29;20178;-76
2022/01/07 10:37:56;;;;;;;9.60;5.13;;;1.90;99.90;;;;;;4914803;29;20509;-73
2022/01/07 10:40:25;;;;;;;7.20;5.23;;;1.90;99.90;;;;;;4916231;29;20421;-72
2022/01/07 10:42:54;;;;;;;8.67;5.30;;;1.90;99.90;;;;;;4914832;29;20405;-72
2022/01/07 10:45:20;;;;;;;8.87;5.40;;;2.00;99.90;;;;;;4914816;29;20888;-73
2022/01/07 10:47:51;;;;;;;12.00;4.97;;;2.00;99.90;;;;;;4914797;29;20420;-73
2022/01/07 10:50:21;;;;;;;9.37;5.20;;;2.00;99.90;;;;;;4913784;29;20411;-72
2022/01/07 10:52:47;;;;;;;7.37;6.00;;;2.00;99.90;;;;;;4914739;29;20745;-73
2022/01/07 10:55:19;;;;;;;11.03;5.40;;;2.00;99.90;;;;;;4914944;29;20450;-72
2022/01/07 10:57:46;;;;;;;11.73;6.90;;;1.90;99.90;;;;;;4914716;29;20283;-72
2022/01/07 11:00:17;;;;;;;7.30;5.80;;;1.70;99.90;;;;;;4913472;29;20426;-73
2022/01/07 11:02:43;;;;;;;13.50;5.87;;;1.70;99.90;;;;;;4914712;29;21018;-74
2022/01/07 11:05:10;;;;;;;8.27;6.13;;;1.70;99.90;;;;;;4914865;29;20451;-73
2022/01/07 11:07:36;;;;;;;14.37;6.73;;;1.60;99.90;;;;;;4914409;29;20198;-73
2022/01/07 11:10:04;;;;;;;8.80;5.73;;;1.60;99.90;;;;;;4914393;29;20421;-74
2022/01/07 11:12:31;;;;;;;11.77;6.77;;;1.50;99.90;;;;;;4914273;29;20186;-75
2022/01/07 11:14:58;;;;;;;12.57;7.07;;;1.50;99.90;;;;;;4932989;29;20760;-72
2022/01/07 11:17:24;;;;;;;12.70;8.07;;;1.50;99.90;;;;;;4932485;29;20400;-72
2022/01/07 11:19:59;;;;;;;11.43;6.53;;;1.50;99.90;;;;;;4931124;29;20467;-72
2022/01/07 11:22:26;;;;;;;11.50;7.07;;;1.50;99.90;;;;;;4932646;29;20608;-73
2022/01/07 11:25:06;;;;;;;17.07;7.80;;;1.60;99.90;;;;;;4931851;29;20393;-71
2022/01/07 11:27:52;;;;;;;10.10;6.70;;;1.60;99.90;;;;;;4932218;29;20479;-73
2022/01/07 11:30:19;;;;;;;8.80;5.70;;;1.60;99.90;;;;;;4926247;29;20446;-73
2022/01/07 11:32:48;;;;;;;10.43;7.10;;;1.60;99.90;;;;;;4932470;29;20467;-73
2022/01/07 11:35:17;;;;;;;11.97;7.80;;;1.70;99.90;;;;;;4931624;29;20429;-72
2022/01/07 11:37:51;;;;;;;14.30;7.80;;;1.70;99.90;;;;;;4931688;29;20392;-72
2022/01/07 11:40:28;;;;;;;16.33;9.20;;;1.80;99.90;;;;;;4933286;29;20904;-72
2022/01/07 11:42:55;;;;;;;12.60;6.23;;;1.90;99.90;;;;;;4933313;29;20402;-72
2022/01/07 11:45:30;;;;;;;18.93;8.57;;;1.90;99.90;;;;;;4931850;29;20395;-73
2022/01/07 11:48:20;;;;;;;14.07;7.20;;;2.00;99.90;;;;;;4934732;29;20417;-72
2022/01/07 11:50:55;;;;;;;21.03;10.20;;;2.10;99.90;;;;;;4936522;29;20405;-72
2022/01/07 11:53:41;;;;;;;13.70;7.77;;;2.20;99.90;;;;;;4936429;29;20416;-72
2022/01/07 11:56:09;;;;;;;16.23;7.60;;;2.20;99.90;;;;;;4926517;29;20570;-71
2022/01/07 11:58:38;;;;;;;14.10;7.83;;;2.30;99.90;;;;;;4936375;29;20461;-72
2022/01/07 12:01:04;;;;;;;12.87;7.63;;;2.30;99.90;;;;;;4936644;29;20407;-72
2022/01/07 12:03:42;;;;;;;14.20;6.70;;;2.30;99.90;;;;;;4936711;29;20943;-72
2022/01/07 12:06:24;;;;;;;8.50;6.70;;;2.40;99.90;;;;;;4937902;29;20470;-72
2022/01/07 12:08:58;;;;;;;16.33;5.80;;;2.40;99.90;;;;;;4936531;29;20455;-71
2022/01/07 12:11:45;;;;;;;9.07;6.43;;;2.40;99.90;;;;;;4935408;29;20444;-72
2022/01/07 12:14:15;;;;;;;14.07;6.90;;;2.50;99.90;;;;;;4935543;29;20422;-72
2022/01/07 12:16:46;;;;;;;8.00;5.53;;;2.60;99.90;;;;;;4936007;29;20509;-72
2022/01/07 12:19:21;;;;;;;7.37;5.90;;;2.60;99.90;;;;;;4934887;29;20820;-72
2022/01/07 12:21:58;;;;;;;11.57;6.63;;;2.60;99.90;;;;;;4936369;29;20434;-72
2022/01/07 12:24:26;;;;;;;16.27;5.80;;;2.70;99.90;;;;;;4935867;29;20412;-72
2022/01/07 12:27:08;;;;;;;8.63;6.00;;;2.80;99.90;;;;;;4936281;29;20392;-70
2022/01/07 12:29:37;;;;;;;7.73;4.83;;;2.80;99.90;;;;;;4935975;29;20510;-72
2022/01/07 12:32:05;;;;;;;6.57;5.87;;;2.70;99.90;;;;;;4935758;29;20461;-71
2022/01/07 12:34:43;;;;;;;9.43;5.50;;;2.70;99.90;;;;;;4935530;29;20449;-71
2022/01/07 12:37:11;;;;;;;5.80;4.77;;;2.70;99.90;;;;;;4936245;29;20391;-70
2022/01/07 12:39:52;;;;;;;9.07;4.40;;;2.70;99.90;;;;;;4935724;29;20530;-72
2022/01/07 12:42:18;;;;;;;9.83;5.37;;;2.80;99.90;;;;;;4934633;29;20434;-71
2022/01/07 12:44:52;;;;;;;12.60;5.10;;;2.90;99.90;;;;;;4936190;29;20508;-71
2022/01/07 12:47:20;;;;;;;5.60;4.37;;;2.80;99.90;;;;;;4935887;29;20392;-70
2022/01/07 12:49:51;;;;;;;7.37;5.63;;;2.80;99.90;;;;;;4935850;29;20394;-72
2022/01/07 12:52:26;;;;;;;7.07;5.63;;;3.00;99.90;;;;;;4935387;29;20449;-72
2022/01/07 12:55:22;;;;;;;4.90;4.37;;;3.10;99.90;;;;;;4935686;29;20504;-70
2022/01/07 12:58:01;;;;;;;7.63;4.13;;;3.20;99.90;;;;;;4935599;29;20429;-72
2022/01/07 13:00:30;;;;;;;7.03;5.10;;;3.20;99.90;;;;;;4935334;29;20393;-72
2022/01/07 13:03:06;;;;;;;7.03;4.30;;;3.30;99.90;;;;;;4935439;29;20833;-72
2022/01/07 13:05:41;;;;;;;5.83;4.37;;;3.40;99.90;;;;;;4935504;29;20391;-72
2022/01/07 13:08:34;;;;;;;5.23;4.03;;;3.40;99.90;;;;;;4935473;29;20807;-72
2022/01/07 13:11:00;;;;;;;7.33;3.70;;;3.40;99.90;;;;;;4934325;29;20424;-73
2022/01/07 13:13:25;;;;;;;4.73;3.80;;;3.40;99.90;;;;;;4934167;29;20424;-71
2022/01/07 13:15:57;;;;;;;5.67;3.87;;;3.50;99.90;;;;;;4934498;29;20571;-72
2022/01/07 13:18:35;;;;;;;5.10;3.40;;;3.70;99.90;;;;;;4934990;29;20193;-72
2022/01/07 13:21:06;;;;;;;6.67;4.27;;;3.80;99.90;;;;;;4916500;29;20449;-72
2022/01/07 13:23:49;;;;;;;6.40;4.00;;;3.80;99.90;;;;;;4915849;29;20396;-72
2022/01/07 13:26:15;;;;;;;9.97;4.80;;;3.80;99.90;;;;;;4916456;29;20415;-72
2022/01/07 13:28:48;;;;;;;4.80;3.80;;;3.70;99.90;;;;;;4917806;29;20427;-72
2022/01/07 13:31:17;;;;;;;4.70;3.87;;;3.60;99.90;;;;;;4915985;29;20463;-72
2022/01/07 13:33:43;;;;;;;3.73;3.30;;;3.50;99.90;;;;;;4915743;29;20420;-72
2022/01/07 13:36:14;;;;;;;4.70;4.27;;;3.50;99.90;;;;;;4915979;29;20768;-72
2022/01/07 13:38:40;;;;;;;3.47;3.17;;;3.60;99.90;;;;;;4915889;29;20437;-72
2022/01/07 13:41:11;;;;;;;6.73;3.23;;;3.60;99.90;;;;;;4915909;29;20437;-71
2022/01/07 13:43:40;;;;;;;5.53;3.07;;;3.70;99.90;;;;;;4914383;29;20433;-72
2022/01/07 13:46:11;;;;;;;5.10;3.17;;;3.70;99.90;;;;;;4916012;29;20415;-73
2022/01/07 13:48:55;;;;;;;3.30;3.00;;;3.70;99.90;;;;;;4914516;29;20852;-73
2022/01/07 13:51:26;;;;;;;4.30;2.93;;;3.70;99.90;;;;;;4915339;29;20438;-73
2022/01/07 13:54:10;;;;;;;9.53;3.40;;;3.70;99.90;;;;;;4915529;29;20736;-73
2022/01/07 13:56:38;;;;;;;3.83;2.27;;;3.70;99.90;;;;;;4915727;29;20401;-73
2022/01/07 13:59:07;;;;;;;2.47;2.27;;;3.70;99.90;;;;;;4915565;29;20444;-73
2022/01/07 14:01:32;;;;;;;4.53;2.40;;;3.60;99.90;;;;;;4915171;29;20452;-73
2022/01/07 14:03:58;;;;;;;2.40;1.97;;;3.60;99.90;;;;;;4915501;29;20505;-73
2022/01/07 14:06:24;;;;;;;3.13;2.47;;;3.60;99.90;;;;;;4915314;29;20545;-73
2022/01/07 14:09:09;;;;;;;2.93;2.73;;;3.60;99.90;;;;;;4915509;29;20907;-71
2022/01/07 14:11:35;;;;;;;5.30;2.50;;;3.60;99.90;;;;;;4914130;29;20438;-73
2022/01/07 14:14:15;;;;;;;4.60;2.80;;;3.60;99.90;;;;;;4914526;29;20400;-73
2022/01/07 14:16:46;;;;;;;10.40;3.00;;;3.50;99.90;;;;;;4912815;29;20420;-73
2022/01/07 14:19:13;;;;;;;5.13;2.07;;;3.50;99.90;;;;;;4914340;29;20466;-70
2022/01/07 14:21:41;;;;;;;3.13;2.10;;;3.40;99.90;;;;;;4913856;29;20539;-74
2022/01/07 14:24:10;;;;;;;5.70;2.30;;;3.50;99.90;;;;;;4915300;29;20423;-74
2022/01/07 14:26:47;;;;;;;4.20;2.40;;;3.50;99.90;;;;;;4915260;29;20411;-73
2022/01/07 14:29:13;;;;;;;2.80;2.27;;;3.50;99.90;;;;;;4915267;29;20389;-72
2022/01/07 14:31:39;;;;;;;7.67;2.80;;;3.50;99.90;;;;;;4914897;29;20501;-72
2022/01/07 14:34:06;;;;;;;5.90;2.37;;;3.50;99.90;;;;;;4915146;29;20530;-73
2022/01/07 14:36:31;;;;;;;7.30;2.63;;;3.50;99.90;;;;;;4924808;29;20332;-74
2022/01/07 14:38:57;;;;;;;5.00;2.63;;;3.50;99.90;;;;;;4933945;29;20535;-71
2022/01/07 14:41:22;;;;;;;2.50;1.93;;;3.40;99.90;;;;;;4930316;29;20206;-73
2022/01/07 14:43:50;;;;;;;4.17;1.50;;;3.40;99.90;;;;;;4934072;29;20181;-73
2022/01/07 14:46:16;;;;;;;2.97;2.43;;;3.40;99.90;;;;;;4933819;29;20182;-75
2022/01/07 14:48:42;;;;;;;3.80;2.20;;;3.40;99.90;;;;;;4932840;29;20524;-73
2022/01/07 14:51:07;;;;;;;6.80;2.40;;;3.40;99.90;;;;;;4933678;29;20444;-74
2022/01/07 14:53:33;;;;;;;6.10;2.93;;;3.40;99.90;;;;;;4932824;29;20264;-74
2022/01/07 14:55:58;;;;;;;8.60;1.87;;;3.40;99.90;;;;;;4933879;29;20179;-74
2022/01/07 14:58:24;;;;;;;2.23;1.83;;;3.40;99.90;;;;;;4932186;29;20201;-73
2022/01/07 15:00:50;;;;;;;4.30;1.90;;;3.40;99.90;;;;;;4934059;29;20259;-73
2022/01/07 15:03:16;;;;;;;3.03;1.93;;;3.40;99.90;;;;;;4933394;29;20170;-74
2022/01/07 15:05:42;;;;;;;2.07;1.93;;;3.40;99.90;;;;;;4932548;29;20183;-74
2022/01/07 15:08:09;;;;;;;3.90;1.87;;;3.40;99.90;;;;;;4933675;29;21046;-74
2022/01/07 15:10:36;;;;;;;3.60;2.07;;;3.30;99.90;;;;;;4931134;29;20190;-73
2022/01/07 15:13:01;;;;;;;5.80;2.20;;;3.30;99.90;;;;;;4923478;29;20430;-74
2022/01/07 15:18:11;;;;;;;5.50;2.33;;;3.30;99.90;;;;;;4914596;29;20234;-74
2022/01/07 15:20:37;;;;;;;7.27;2.40;;;3.30;99.90;;;;;;4913167;29;20427;-72
2022/01/07 15:23:05;;;;;;;9.67;1.70;;;3.30;99.90;;;;;;4916038;29;20181;-74
2022/01/07 15:25:31;;;;;;;2.73;1.80;;;3.30;99.90;;;;;;4918183;29;20179;-73
2022/01/07 15:27:56;;;;;;;5.10;1.83;;;3.30;99.90;;;;;;4918321;29;20977;-74
2022/01/07 15:30:22;;;;;;;1.87;1.53;;;3.30;99.90;;;;;;4926664;29;20265;-73
2022/01/07 15:32:49;;;;;;;4.80;2.30;;;3.30;99.90;;;;;;4933665;29;20225;-74
2022/01/07 15:35:24;;;;;;;3.40;2.30;;;3.30;99.90;;;;;;4935356;29;20915;-75
2022/01/07 15:37:50;;;;;;;6.43;3.70;;;3.30;99.90;;;;;;4923825;29;20467;-74
2022/01/07 15:40:16;;;;;;;5.30;4.70;;;3.30;99.90;;;;;;4933206;29;20399;-73
2022/01/07 15:42:43;;;;;;;3.10;2.70;;;3.30;99.90;;;;;;4937186;29;20433;-73
2022/01/07 15:45:10;;;;;;;2.27;1.70;;;3.30;99.90;;;;;;4936857;29;20176;-73
2022/01/07 15:47:36;;;;;;;10.33;2.37;;;3.30;99.90;;;;;;4936658;29;20427;-74
2022/01/07 15:50:03;;;;;;;4.93;3.43;;;3.20;99.90;;;;;;4936774;29;20514;-73
2022/01/07 15:52:29;;;;;;;4.10;2.03;;;3.30;99.90;;;;;;4936305;29;20415;-73
2022/01/07 15:54:58;;;;;;;7.33;3.83;;;3.30;99.90;;;;;;4936621;29;20422;-73
2022/01/07 15:57:25;;;;;;;1.80;1.70;;;3.30;99.90;;;;;;4936145;29;20188;-74
2022/01/07 15:59:51;;;;;;;1.67;1.57;;;3.20;99.90;;;;;;4936477;29;20472;-74
2022/01/07 16:02:16;;;;;;;1.90;1.73;;;3.20;99.90;;;;;;4935397;29;20437;-78
2022/01/07 16:04:42;;;;;;;3.53;1.67;;;3.20;99.90;;;;;;4937266;29;20511;-79
2022/01/07 16:07:09;;;;;;;4.50;1.87;;;3.20;99.90;;;;;;4937211;29;20175;-76
2022/01/07 16:09:35;;;;;;;3.90;1.97;;;3.20;99.90;;;;;;4933029;29;20265;-76
2022/01/07 16:12:00;;;;;;;2.00;1.80;;;3.20;99.90;;;;;;4934446;29;20935;-76
2022/01/07 16:14:26;;;;;;;2.73;2.00;;;3.10;99.90;;;;;;4931163;29;20707;-75
2022/01/07 16:16:51;;;;;;;2.63;1.77;;;3.20;99.90;;;;;;4932528;29;20259;-76
2022/01/07 16:19:17;;;;;;;2.50;1.87;;;3.20;99.90;;;;;;4930846;29;20209;-77
2022/01/07 16:21:43;;;;;;;3.37;2.30;;;3.10;99.90;;;;;;4932507;29;20212;-74
2022/01/07 16:24:08;;;;;;;6.50;2.00;;;3.20;99.90;;;;;;4931803;29;20194;-73
2022/01/07 16:26:34;;;;;;;2.80;1.80;;;3.10;99.90;;;;;;4934380;29;20198;-73
2022/01/07 16:29:00;;;;;;;1.80;1.40;;;3.10;99.90;;;;;;4933062;29;20664;-74
2022/01/07 16:31:25;;;;;;;1.63;1.53;;;3.10;99.90;;;;;;4927923;29;20256;-76
2022/01/07 16:33:51;;;;;;;2.93;1.47;;;3.20;99.90;;;;;;4931014;29;20192;-75
2022/01/07 16:36:17;;;;;;;2.47;1.97;;;3.20;99.90;;;;;;4935579;29;20193;-75
2022/01/07 16:38:45;;;;;;;1.60;1.43;;;3.20;99.90;;;;;;4930299;29;20213;-75
2022/01/07 16:41:12;;;;;;;2.50;1.53;;;3.20;99.90;;;;;;4930614;29;20781;-74
2022/01/07 16:43:37;;;;;;;1.63;1.53;;;3.20;99.90;;;;;;4928046;29;20525;-75
2022/01/07 16:46:03;;;;;;;1.80;1.70;;;3.20;99.90;;;;;;4935830;29;20511;-73
2022/01/07 16:48:31;;;;;;;1.90;1.57;;;3.20;99.90;;;;;;4927533;29;20188;-77
2022/01/07 16:50:57;;;;;;;3.33;1.63;;;3.20;99.90;;;;;;4925818;29;20209;-77
2022/01/07 16:53:25;;;;;;;4.53;2.03;;;3.20;99.90;;;;;;4931108;29;20429;-78
2022/01/07 16:55:50;;;;;;;4.23;1.93;;;3.30;99.90;;;;;;4937224;29;20908;-78
2022/01/07 16:58:18;;;;;;;3.23;1.73;;;3.20;99.90;;;;;;4917049;29;20492;-79
2022/01/07 17:00:43;;;;;;;1.90;1.63;;;3.30;99.90;;;;;;4934450;29;20192;-77
2022/01/07 17:03:10;;;;;;;6.23;3.00;;;3.20;99.90;;;;;;4937462;29;20408;-79
2022/01/07 17:05:43;;;;;;;1.50;1.40;;;3.30;99.90;;;;;;4937233;29;20222;-79
2022/01/07 17:08:10;;;;;;;5.40;1.50;;;3.30;99.90;;;;;;4919681;29;20439;-79
2022/01/07 17:10:39;;;;;;;3.70;1.53;;;3.30;99.90;;;;;;4932309;29;20463;-78
2022/01/07 17:13:12;;;;;;;1.87;1.50;;;3.30;99.90;;;;;;4937558;29;21017;-77
2022/01/07 17:15:38;;;;;;;3.97;1.60;;;3.30;99.90;;;;;;4924951;29;21144;-77
2022/01/07 17:18:07;;;;;;;1.93;1.53;;;3.30;99.90;;;;;;4915000;29;20527;-77
2022/01/07 17:20:33;;;;;;;2.10;1.30;;;3.30;99.90;;;;;;4916304;29;20425;-77
2022/01/07 17:23:00;;;;;;;3.07;1.67;;;3.30;99.90;;;;;;4924921;29;20803;-78
2022/01/07 17:25:26;;;;;;;1.43;1.33;;;3.30;99.90;;;;;;4935486;29;20384;-77
2022/01/07 17:27:52;;;;;;;22.23;1.87;;;3.20;99.90;;;;;;4935399;29;20429;-79
2022/01/07 17:30:17;;;;;;;1.47;1.37;;;3.20;99.90;;;;;;4935207;29;20228;-78
2022/01/07 17:32:43;;;;;;;2.10;1.67;;;3.20;99.90;;;;;;4925104;29;20296;-78
2022/01/07 17:35:09;;;;;;;5.27;1.47;;;3.30;99.90;;;;;;4916785;29;20186;-79
2022/01/07 17:37:35;;;;;;;1.83;1.63;;;3.30;99.90;;;;;;4922175;29;20193;-77